Time;durP1;ratioP1;P1;durP2;ratioP2;P2;SDS_P1;SDS_P2;PMS_P1;PMS_P2;Temp;Humidity;BMP_temperature;BMP_pressure;BME280_temperature;BME280_humidity;BME280_pressure;Samples;Min_cycle;Max_cycle;Signal;HPM_P1;HPM_P2
2021/08/04 00:02:23;;;;;;;;;;;;;;;14.24;81.84;101369.19;5054245;28;19925;-61
2021/08/04 00:04:50;;;;;;;;;;;;;;;14.13;81.88;101367.31;5054227;28;19920;-61
2021/08/04 00:07:16;;;;;;;;;;;;;;;14.20;80.75;101364.09;5054923;28;19920;-60
2021/08/04 00:09:43;;;;;;;;;;;;;;;14.18;80.50;101366.03;5055065;28;20391;-49
2021/08/04 00:12:10;;;;;;;;;;;;;;;14.19;80.56;101369.50;5054871;28;19927;-46
2021/08/04 00:14:37;;;;;;;;;;;;;;;14.14;80.67;101361.09;5036789;28;19920;-61
2021/08/04 00:17:04;;;;;;;;;;;;;;;14.07;80.91;101365.09;5054936;28;19974;-61
2021/08/04 00:19:31;;;;;;;;;;;;;;;13.92;80.96;101359.97;5054542;28;20368;-47
2021/08/04 00:21:57;;;;;;;;;;;;;;;14.00;81.10;101367.34;5054264;28;19921;-47
2021/08/04 00:24:24;;;;;;;;;;;;;;;13.95;82.19;101365.03;5052993;28;19920;-61
2021/08/04 00:26:51;;;;;;;;;;;;;;;13.89;82.57;101364.63;5054213;28;19927;-60
2021/08/04 00:29:17;;;;;;;;;;;;;;;13.77;83.12;101367.19;5054236;28;19920;-46
2021/08/04 00:31:44;;;;;;;;;;;;;;;13.76;83.07;101364.66;5053045;28;19925;-49
2021/08/04 00:34:11;;;;;;;;;;;;;;;13.75;83.01;101362.97;5054053;28;19943;-50
2021/08/04 00:36:38;;;;;;;;;;;;;;;13.66;83.43;101367.94;5053985;28;19974;-50
2021/08/04 00:39:05;;;;;;;;;;;;;;;13.66;83.21;101359.16;5053098;28;19967;-47
2021/08/04 00:41:41;;;;;;;;;;;;;;;13.64;83.37;101366.34;5054253;28;19974;-61
2021/08/04 00:44:08;;;;;;;;;;;;;;;13.64;82.74;101363.72;5054228;28;19920;-61
2021/08/04 00:46:41;;;;;;;;;;;;;;;13.67;82.16;101364.34;5036332;28;19921;-46
2021/08/04 00:49:09;;;;;;;;;;;;;;;13.60;82.51;101360.44;5053869;28;19928;-50
2021/08/04 00:51:36;;;;;;;;;;;;;;;13.55;83.04;101359.91;5052570;28;19982;-49
2021/08/04 00:54:04;;;;;;;;;;;;;;;13.54;83.35;101355.59;5054116;28;20143;-61
2021/08/04 00:56:31;;;;;;;;;;;;;;;13.60;83.59;101354.31;5053089;28;19925;-48
2021/08/04 00:58:57;;;;;;;;;;;;;;;13.58;84.05;101356.19;5053780;28;20392;-49
2021/08/04 01:01:59;;;;;;;;;;;;;;;13.54;84.08;101358.22;5053751;28;20300;-49
2021/08/04 01:04:28;;;;;;;;;;;;;;;13.51;83.96;101361.94;5011794;28;20331;-61
2021/08/04 01:07:04;;;;;;;;;;;;;;;13.49;84.16;101355.88;5041821;28;19924;-60
2021/08/04 01:09:36;;;;;;;;;;;;;;;13.45;84.55;101358.84;5052975;28;19921;-50
2021/08/04 01:12:03;;;;;;;;;;;;;;;13.47;84.72;101359.59;5053845;28;19931;-46
2021/08/04 01:14:30;;;;;;;;;;;;;;;13.47;84.58;101364.88;5053050;28;19920;-47
2021/08/04 01:16:57;;;;;;;;;;;;;;;13.39;85.27;101356.63;5053760;28;19960;-61
2021/08/04 01:19:33;;;;;;;;;;;;;;;13.35;85.01;101362.13;5036064;28;19921;-60
2021/08/04 01:22:18;;;;;;;;;;;;;;;13.35;85.23;101358.63;5053711;28;20394;-61
2021/08/04 01:24:48;;;;;;;;;;;;;;;13.39;85.34;101354.84;5053590;28;19925;-60
2021/08/04 01:27:14;;;;;;;;;;;;;;;13.38;85.16;101360.25;5052305;28;19928;-46
2021/08/04 01:29:41;;;;;;;;;;;;;;;13.39;85.24;101362.78;5053634;28;19966;-60
2021/08/04 01:32:08;;;;;;;;;;;;;;;13.40;85.46;101358.31;5052307;28;20023;-45
2021/08/04 01:34:35;;;;;;;;;;;;;;;13.41;85.55;101354.75;5052266;28;19974;-60
2021/08/04 01:37:03;;;;;;;;;;;;;;;13.39;85.63;101352.22;5052239;28;19927;-48
2021/08/04 01:39:29;;;;;;;;;;;;;;;13.38;85.59;101350.50;5052416;28;19920;-61
2021/08/04 01:41:56;;;;;;;;;;;;;;;13.38;85.66;101353.16;5052288;28;20374;-60
2021/08/04 01:44:22;;;;;;;;;;;;;;;13.33;86.05;101356.09;5052172;28;19970;-61
2021/08/04 01:46:49;;;;;;;;;;;;;;;13.29;86.44;101351.09;5052128;28;19920;-44
2021/08/04 01:49:16;;;;;;;;;;;;;;;13.27;86.53;101350.38;5052149;28;19921;-49
2021/08/04 01:51:44;;;;;;;;;;;;;;;13.26;86.17;101353.97;5053065;28;20055;-46
2021/08/04 01:54:11;;;;;;;;;;;;;;;13.24;86.68;101351.44;5051878;28;19921;-61
2021/08/04 01:56:39;;;;;;;;;;;;;;;13.22;86.29;101350.69;5051892;28;19920;-61
2021/08/04 01:59:05;;;;;;;;;;;;;;;13.20;86.62;101352.59;5053078;28;19921;-60
2021/08/04 02:01:34;;;;;;;;;;;;;;;13.21;86.55;101354.28;5053027;28;19921;-61
2021/08/04 02:04:01;;;;;;;;;;;;;;;13.19;86.59;101350.91;5052450;28;20324;-49
2021/08/04 02:06:54;;;;;;;;;;;;;;;13.19;86.72;101353.53;5052803;28;19959;-47
2021/08/04 02:09:27;;;;;;;;;;;;;;;13.17;86.57;101351.00;5050962;28;20370;-60
2021/08/04 02:12:12;;;;;;;;;;;;;;;13.14;86.75;101355.63;5051707;28;19975;-61
2021/08/04 02:14:41;;;;;;;;;;;;;;;13.12;86.79;101352.28;5052820;28;19921;-61
2021/08/04 02:17:11;;;;;;;;;;;;;;;13.14;87.27;101353.00;5052924;28;19956;-60
2021/08/04 02:19:40;;;;;;;;;;;;;;;13.11;87.82;101337.38;5053091;28;19927;-60
2021/08/04 02:22:12;;;;;;;;;;;;;;;13.19;87.20;101346.44;5052809;28;19924;-60
2021/08/04 02:24:41;;;;;;;;;;;;;;;13.16;86.81;101343.19;5051684;28;19920;-60
2021/08/04 02:27:07;;;;;;;;;;;;;;;13.12;86.51;101349.63;5051339;28;19928;-60
2021/08/04 02:29:35;;;;;;;;;;;;;;;13.12;86.88;101349.63;5052825;28;19931;-60
2021/08/04 02:32:02;;;;;;;;;;;;;;;13.12;86.69;101344.34;5051366;28;19925;-60
2021/08/04 02:34:28;;;;;;;;;;;;;;;13.05;87.18;101343.06;5035135;28;19927;-60
2021/08/04 02:36:55;;;;;;;;;;;;;;;12.99;87.11;101350.47;5052639;28;20294;-60
2021/08/04 02:39:22;;;;;;;;;;;;;;;12.97;87.47;101347.06;5052570;28;19939;-60
2021/08/04 02:41:48;;;;;;;;;;;;;;;12.96;87.26;101347.16;5052648;28;19928;-47
2021/08/04 02:44:15;;;;;;;;;;;;;;;12.95;87.36;101343.69;5052524;28;19927;-48
2021/08/04 02:46:43;;;;;;;;;;;;;;;12.99;87.07;101342.53;5051402;28;19920;-46
2021/08/04 02:49:10;;;;;;;;;;;;;;;12.98;86.75;101343.47;5034819;28;19920;-61
2021/08/04 02:51:37;;;;;;;;;;;;;;;12.94;86.71;101342.00;5051248;28;19970;-49
2021/08/04 02:54:03;;;;;;;;;;;;;;;13.05;85.77;101338.63;5051123;28;19924;-48
2021/08/04 02:56:30;;;;;;;;;;;;;;;12.99;85.42;101328.47;5052311;28;19921;-46
2021/08/04 02:58:56;;;;;;;;;;;;;;;12.86;85.86;101336.38;5052380;28;20256;-46
2021/08/04 03:01:23;;;;;;;;;;;;;;;12.87;86.41;101335.44;5052556;28;19943;-60
2021/08/04 03:03:50;;;;;;;;;;;;;;;12.81;86.89;101338.47;5052391;28;19925;-60
2021/08/04 03:06:17;;;;;;;;;;;;;;;12.79;87.22;101335.94;5052226;28;19921;-60
2021/08/04 03:08:43;;;;;;;;;;;;;;;12.84;87.37;101331.22;5052258;28;19929;-61
2021/08/04 03:11:10;;;;;;;;;;;;;;;12.80;87.24;101332.38;5051159;28;19921;-60
2021/08/04 03:13:37;;;;;;;;;;;;;;;12.79;87.57;101329.84;5051168;28;19921;-61
2021/08/04 03:16:03;;;;;;;;;;;;;;;12.79;87.46;101335.13;5052724;28;20288;-48
2021/08/04 03:18:30;;;;;;;;;;;;;;;12.73;87.57;101330.22;5056218;28;19924;-56
2021/08/04 03:20:57;;;;;;;;;;;;;;;12.71;87.72;101335.63;5056291;28;19924;-60
2021/08/04 03:23:24;;;;;;;;;;;;;;;12.76;87.37;101330.88;5055915;28;19921;-61
2021/08/04 03:25:51;;;;;;;;;;;;;;;12.75;87.45;101336.25;5056316;28;19979;-61
2021/08/04 03:28:17;;;;;;;;;;;;;;;12.66;87.86;101330.63;5054578;28;19943;-61
2021/08/04 03:30:44;;;;;;;;;;;;;;;12.67;88.10;101329.69;5055815;28;20363;-46
2021/08/04 03:33:11;;;;;;;;;;;;;;;12.71;87.16;101334.75;5055801;28;19921;-46
2021/08/04 03:35:37;;;;;;;;;;;;;;;12.70;87.29;101333.91;5055778;28;19925;-45
2021/08/04 03:38:04;;;;;;;;;;;;;;;12.68;86.63;101334.03;5054663;28;19932;-47
2021/08/04 03:40:31;;;;;;;;;;;;;;;12.64;86.31;101334.34;5055971;28;19967;-46
2021/08/04 03:42:58;;;;;;;;;;;;;;;12.57;86.55;101327.75;5055628;28;19924;-60
2021/08/04 03:45:26;;;;;;;;;;;;;;;12.57;86.54;101330.41;5055803;28;20375;-60
2021/08/04 03:47:53;;;;;;;;;;;;;;;12.57;86.30;101338.31;5055450;28;19927;-60
2021/08/04 03:50:20;;;;;;;;;;;;;;;12.58;86.27;101340.84;5037844;28;19920;-60
2021/08/04 03:52:46;;;;;;;;;;;;;;;12.55;86.80;101338.41;5055726;28;19990;-60
2021/08/04 03:55:13;;;;;;;;;;;;;;;12.43;87.44;101340.06;5054202;28;19994;-60
2021/08/04 03:57:40;;;;;;;;;;;;;;;12.44;87.83;101346.19;5055618;28;19927;-48
2021/08/04 04:00:07;;;;;;;;;;;;;;;12.42;87.46;101340.16;5055477;28;20342;-61
2021/08/04 04:02:34;;;;;;;;;;;;;;;12.47;87.50;101345.97;5055163;28;19960;-60
2021/08/04 04:05:02;;;;;;;;;;;;;;;12.39;88.11;101350.91;5055050;28;19928;-60
2021/08/04 04:07:29;;;;;;;;;;;;;;;12.41;88.55;101347.25;5054877;28;19943;-60
2021/08/04 04:09:55;;;;;;;;;;;;;;;12.41;88.01;101351.69;5055059;28;19967;-44
2021/08/04 04:12:22;;;;;;;;;;;;;;;12.33;88.03;101352.16;5054942;28;20426;-59
2021/08/04 04:14:49;;;;;;;;;;;;;;;12.36;87.79;101359.03;5055033;28;20322;-60
2021/08/04 04:17:16;;;;;;;;;;;;;;;12.28;87.90;101351.59;5055149;28;20364;-60
2021/08/04 04:19:42;;;;;;;;;;;;;;;12.33;88.13;101360.06;5054799;28;19920;-60
2021/08/04 04:22:09;;;;;;;;;;;;;;;12.31;87.69;101360.19;5052056;28;20292;-60
2021/08/04 04:24:35;;;;;;;;;;;;;;;12.34;87.51;101359.97;5051213;28;19924;-45
2021/08/04 04:27:02;;;;;;;;;;;;;;;12.36;86.74;101364.31;5054137;28;19931;-47
2021/08/04 04:29:29;;;;;;;;;;;;;;;12.25;87.54;101367.63;5054874;28;19920;-48
2021/08/04 04:31:56;;;;;;;;;;;;;;;12.31;87.02;101365.44;5054507;28;19921;-60
2021/08/04 04:34:22;;;;;;;;;;;;;;;12.21;87.31;101363.50;5054715;28;19970;-59
2021/08/04 04:36:49;;;;;;;;;;;;;;;12.26;87.84;101367.53;5051360;28;19924;-47
2021/08/04 04:39:15;;;;;;;;;;;;;;;12.25;88.20;101371.09;5051654;28;19920;-43
2021/08/04 04:41:42;;;;;;;;;;;;;;;12.26;88.21;101369.34;5054555;28;19927;-48
2021/08/04 04:44:09;;;;;;;;;;;;;;;12.24;88.86;101377.31;5054518;28;19925;-48
2021/08/04 04:46:36;;;;;;;;;;;;;;;12.26;89.03;101374.59;5052915;28;19920;-60
2021/08/04 04:49:03;;;;;;;;;;;;;;;12.28;88.92;101375.34;5051788;28;19925;-46
2021/08/04 04:51:29;;;;;;;;;;;;;;;12.23;89.59;101378.28;5051909;28;19925;-46
2021/08/04 04:53:56;;;;;;;;;;;;;;;12.13;89.78;101387.69;5050368;28;19967;-60
2021/08/04 04:56:23;;;;;;;;;;;;;;;12.07;89.72;101382.84;5052283;28;19920;-60
2021/08/04 04:58:50;;;;;;;;;;;;;;;12.18;89.51;101380.34;5052406;28;19921;-60
2021/08/04 05:01:16;;;;;;;;;;;;;;;12.18;89.53;101390.91;5052215;28;19928;-60
2021/08/04 05:03:43;;;;;;;;;;;;;;;12.20;89.79;101382.91;5053659;28;20372;-60
2021/08/04 05:06:10;;;;;;;;;;;;;;;12.23;90.05;101383.56;5052368;28;19966;-60
2021/08/04 05:08:37;;;;;;;;;;;;;;;12.25;89.91;101378.19;5053444;28;19927;-60
2021/08/04 05:11:03;;;;;;;;;;;;;;;12.28;90.24;101386.72;5050247;28;20331;-45
2021/08/04 05:13:30;;;;;;;;;;;;;;;12.30;89.79;101384.84;5047813;28;19921;-44
2021/08/04 05:15:57;;;;;;;;;;;;;;;12.30;89.97;101390.13;5052700;28;20244;-44
2021/08/04 05:18:24;;;;;;;;;;;;;;;12.38;89.90;101394.06;5053459;28;19932;-45
2021/08/04 05:20:50;;;;;;;;;;;;;;;12.45;89.89;101393.56;5053459;28;19975;-48
2021/08/04 05:23:17;;;;;;;;;;;;;;;12.52;89.91;101388.75;5052594;28;19967;-60
2021/08/04 05:25:44;;;;;;;;;;;;;;;12.58;90.28;101393.59;5052375;28;20331;-60
2021/08/04 05:28:10;;;;;;;;;;;;;;;12.55;91.26;101396.47;5048459;28;19928;-60
2021/08/04 05:30:37;;;;;;;;;;;;;;;12.60;91.97;101396.19;5053088;28;20372;-60
2021/08/04 05:33:04;;;;;;;;;;;;;;;12.64;91.79;101401.13;5053404;28;19921;-61
2021/08/04 05:35:30;;;;;;;;;;;;;;;12.70;92.32;101405.16;5053424;28;19925;-49
2021/08/04 05:37:57;;;;;;;;;;;;;;;12.78;92.27;101404.69;5053406;28;20318;-47
2021/08/04 05:40:23;;;;;;;;;;;;;;;12.82;92.02;101412.28;5052687;28;19921;-51
2021/08/04 05:42:50;;;;;;;;;;;;;;;12.89;92.13;101403.97;5053353;28;20375;-49
2021/08/04 05:45:17;;;;;;;;;;;;;;;12.95;92.54;101409.69;5053093;28;19974;-44
2021/08/04 05:47:43;;;;;;;;;;;;;;;13.03;92.32;101398.59;5050454;28;19958;-60
2021/08/04 05:50:10;;;;;;;;;;;;;;;13.10;92.51;101410.47;5050825;28;20273;-60
2021/08/04 05:52:37;;;;;;;;;;;;;;;13.21;92.47;101398.31;5051589;28;19921;-60
2021/08/04 05:55:06;;;;;;;;;;;;;;;13.26;92.12;101410.25;5052921;28;20020;-60
2021/08/04 05:57:33;;;;;;;;;;;;;;;13.35;92.06;101403.53;5051779;28;19921;-48
2021/08/04 05:59:59;;;;;;;;;;;;;;;13.44;91.81;101410.00;5052812;28;19948;-48
2021/08/04 06:02:26;;;;;;;;;;;;;;;13.53;92.49;101399.63;5051988;28;19966;-50
2021/08/04 06:04:53;;;;;;;;;;;;;;;13.62;91.95;101400.81;5049860;28;19959;-46
2021/08/04 06:07:20;;;;;;;;;;;;;;;13.75;91.21;101407.91;5049873;28;19928;-60
2021/08/04 06:09:47;;;;;;;;;;;;;;;13.84;91.20;101407.25;5052586;28;19943;-60
2021/08/04 06:12:14;;;;;;;;;;;;;;;13.96;90.48;101403.75;5052573;28;19920;-60
2021/08/04 06:14:40;;;;;;;;;;;;;;;14.07;90.57;101399.47;5051265;28;20326;-46
2021/08/04 06:17:07;;;;;;;;;;;;;;;14.16;90.09;101404.13;5052473;28;19932;-47
2021/08/04 06:19:34;;;;;;;;;;;;;;;14.24;90.42;101407.06;5052849;28;19921;-50
2021/08/04 06:22:00;;;;;;;;;;;;;;;14.35;89.92;101409.78;5049526;28;19963;-61
2021/08/04 06:24:27;;;;;;;;;;;;;;;14.46;89.18;101416.09;5049700;28;19921;-59
2021/08/04 06:26:54;;;;;;;;;;;;;;;14.64;88.41;101411.28;5051787;28;19925;-59
2021/08/04 06:29:21;;;;;;;;;;;;;;;14.76;87.43;101415.69;5047670;28;19921;-58
2021/08/04 06:31:48;;;;;;;;;;;;;;;14.89;87.54;101418.28;5050685;28;19921;-61
2021/08/04 06:34:15;;;;;;;;;;;;;;;14.99;87.75;101413.13;5052449;28;19994;-61
2021/08/04 06:36:42;;;;;;;;;;;;;;;15.11;86.64;101412.22;5051235;28;19927;-47
2021/08/04 06:39:08;;;;;;;;;;;;;;;15.25;85.69;101408.50;5048787;28;19928;-60
2021/08/04 06:41:40;;;;;;;;;;;;;;;15.44;85.53;101407.13;5052399;28;20350;-59
2021/08/04 06:44:06;;;;;;;;;;;;;;;15.62;85.09;101400.38;5052429;28;19925;-59
2021/08/04 06:46:33;;;;;;;;;;;;;;;15.74;84.48;101401.22;5052152;28;20399;-60
2021/08/04 06:49:01;;;;;;;;;;;;;;;15.90;83.01;101400.91;5048457;28;19925;-46
2021/08/04 06:51:28;;;;;;;;;;;;;;;16.05;82.24;101390.91;5052384;28;20314;-48
2021/08/04 06:53:55;;;;;;;;;;;;;;;16.19;81.81;101395.91;5055531;28;20283;-47
2021/08/04 06:56:22;;;;;;;;;;;;;;;16.39;79.90;101406.75;5056458;28;19921;-46
2021/08/04 06:58:49;;;;;;;;;;;;;;;16.52;79.49;101399.50;5056150;28;19925;-49
2021/08/04 07:01:15;;;;;;;;;;;;;;;16.74;78.77;101400.34;5056141;28;20379;-50
2021/08/04 07:03:42;;;;;;;;;;;;;;;16.81;79.16;101400.69;5054792;28;19943;-49
2021/08/04 07:06:09;;;;;;;;;;;;;;;16.90;79.81;101408.75;5052718;28;20647;-47
2021/08/04 07:08:37;;;;;;;;;;;;;;;17.02;78.16;101401.59;5055517;28;20430;-46
2021/08/04 07:11:03;;;;;;;;;;;;;;;17.12;78.58;101406.16;5056205;28;19971;-52
2021/08/04 07:13:30;;;;;;;;;;;;;;;17.17;77.94;101404.78;5055829;28;19920;-49
2021/08/04 07:15:57;;;;;;;;;;;;;;;17.17;77.63;101406.59;5055794;28;19920;-48
2021/08/04 07:18:23;;;;;;;;;;;;;;;17.29;76.14;101413.53;5054931;28;19921;-47
2021/08/04 07:20:50;;;;;;;;;;;;;;;17.44;76.34;101410.53;5055860;28;19920;-44
2021/08/04 07:23:16;;;;;;;;;;;;;;;17.62;74.46;101408.13;5052698;28;20390;-50
2021/08/04 07:25:43;;;;;;;;;;;;;;;17.61;73.51;101399.28;5053793;28;19963;-47
2021/08/04 07:28:10;;;;;;;;;;;;;;;17.81;74.72;101408.22;5054629;28;19921;-48
2021/08/04 07:30:36;;;;;;;;;;;;;;;17.85;73.58;101401.66;5055705;28;19924;-49
2021/08/04 07:33:03;;;;;;;;;;;;;;;17.99;73.91;101403.13;5053691;28;19925;-50
2021/08/04 07:35:30;;;;;;;;;;;;;;;18.15;72.23;101404.44;5051780;28;19925;-48
2021/08/04 07:37:56;;;;;;;;;;;;;;;18.26;72.43;101404.31;5055710;28;19920;-45
2021/08/04 07:40:23;;;;;;;;;;;;;;;18.42;71.46;101403.81;5054494;28;19928;-45
2021/08/04 07:42:50;;;;;;;;;;;;;;;18.61;70.01;101402.13;5050914;28;20335;-48
2021/08/04 07:45:17;;;;;;;;;;;;;;;18.75;70.73;101407.06;5053605;28;19952;-48
2021/08/04 07:47:44;;;;;;;;;;;;;;;18.87;69.95;101408.59;5053618;28;19964;-50
2021/08/04 07:50:11;;;;;;;;;;;;;;;19.03;70.72;101408.06;5054186;28;19986;-48
2021/08/04 07:52:38;;;;;;;;;;;;;;;19.15;68.31;101406.06;5052019;28;19924;-46
2021/08/04 07:55:06;;;;;;;;;;;;;;;19.31;68.53;101408.16;5051421;28;19946;-45
2021/08/04 07:57:33;;;;;;;;;;;;;;;19.59;67.95;101400.19;5054959;28;19967;-50
2021/08/04 08:00:00;;;;;;;;;;;;;;;19.67;65.64;101389.63;5053720;28;19928;-60
2021/08/04 08:02:27;;;;;;;;;;;;;;;19.79;65.75;101395.63;5054165;28;19966;-61
2021/08/04 08:04:53;;;;;;;;;;;;;;;19.89;66.22;101401.81;5054681;28;19921;-61
2021/08/04 08:07:20;;;;;;;;;;;;;;;20.10;64.64;101396.22;5051492;28;20008;-60
2021/08/04 08:09:47;;;;;;;;;;;;;;;20.29;64.86;101402.44;5052297;28;20342;-61
2021/08/04 08:12:14;;;;;;;;;;;;;;;20.55;64.88;101401.72;5054828;28;20386;-60
2021/08/04 08:14:40;;;;;;;;;;;;;;;20.72;63.89;101413.41;5054780;28;20004;-61
2021/08/04 08:17:07;;;;;;;;;;;;;;;20.82;61.71;101403.50;5054468;28;20380;-50
2021/08/04 08:19:33;;;;;;;;;;;;;;;21.04;62.52;101401.34;5054647;28;19940;-48
2021/08/04 08:22:00;;;;;;;;;;;;;;;21.23;59.85;101397.63;5053458;28;19920;-49
2021/08/04 08:24:27;;;;;;;;;;;;;;;21.39;60.36;101400.41;5054566;28;19998;-61
2021/08/04 08:26:54;;;;;;;;;;;;;;;21.59;57.82;101400.22;5054375;28;19970;-51
2021/08/04 08:29:20;;;;;;;;;;;;;;;21.67;59.01;101391.38;5053540;28;19921;-60
2021/08/04 08:31:47;;;;;;;;;;;;;;;21.85;56.67;101388.63;5052145;28;19995;-61
2021/08/04 08:34:14;;;;;;;;;;;;;;;22.00;55.96;101387.00;5051964;28;19994;-61
2021/08/04 08:36:40;;;;;;;;;;;;;;;22.30;55.87;101387.41;5053513;28;20347;-60
2021/08/04 08:39:09;;;;;;;;;;;;;;;22.42;56.28;101391.50;5049624;28;20338;-60
2021/08/04 08:41:36;;;;;;;;;;;;;;;22.56;55.83;101386.50;5052680;28;20346;-60
2021/08/04 08:44:03;;;;;;;;;;;;;;;22.75;55.35;101385.34;5053086;28;19920;-51
2021/08/04 08:46:31;;;;;;;;;;;;;;;22.82;53.52;101383.66;5053523;28;19927;-50
2021/08/04 08:48:59;;;;;;;;;;;;;;;22.81;53.28;101382.00;5052408;28;19943;-47
2021/08/04 08:51:26;;;;;;;;;;;;;;;23.00;52.92;101377.28;5050510;28;19933;-47
2021/08/04 08:53:53;;;;;;;;;;;;;;;23.14;52.22;101371.25;5054259;28;20367;-49
2021/08/04 08:56:19;;;;;;;;;;;;;;;23.12;55.65;101375.91;5053578;28;19921;-50
2021/08/04 08:58:47;;;;;;;;;;;;;;;23.19;53.26;101368.91;5053924;28;19928;-48
2021/08/04 09:01:14;;;;;;;;;;;;;;;23.25;50.35;101378.13;5054014;28;20334;-46
2021/08/04 09:03:41;;;;;;;;;;;;;;;23.58;50.99;101369.97;5054043;28;20011;-59
2021/08/04 09:06:08;;;;;;;;;;;;;;;23.98;49.30;101361.94;5054103;28;19986;-60
2021/08/04 09:08:36;;;;;;;;;;;;;;;23.90;49.38;101362.81;5052586;28;19921;-49
2021/08/04 09:11:12;;;;;;;;;;;;;;;23.85;49.69;101363.31;5051740;28;19925;-48
2021/08/04 09:13:39;;;;;;;;;;;;;;;24.04;45.06;101362.09;5048605;28;19921;-47
2021/08/04 09:16:10;;;;;;;;;;;;;;;24.18;45.29;101359.66;5051949;28;19925;-61
2021/08/04 09:18:51;;;;;;;;;;;;;;;24.37;45.60;101358.34;5053811;28;19928;-51
2021/08/04 09:21:18;;;;;;;;;;;;;;;24.27;43.40;101355.91;5052311;28;19927;-51
2021/08/04 09:23:52;;;;;;;;;;;;;;;24.45;42.59;101361.81;5049719;28;19985;-51
2021/08/04 09:26:19;;;;;;;;;;;;;;;24.58;43.23;101358.53;5050893;28;19925;-52
2021/08/04 09:29:05;;;;;;;;;;;;;;;24.46;44.43;101355.44;5053780;28;19924;-49
2021/08/04 09:31:41;;;;;;;;;;;;;;;24.61;44.16;101349.25;5053461;28;20323;-61
2021/08/04 09:34:31;;;;;;;;;;;;;;;24.93;43.79;101352.72;5053105;28;19963;-61
2021/08/04 09:37:07;;;;;;;;;;;;;;;25.11;43.39;101350.53;5044978;28;19943;-49
2021/08/04 09:39:35;;;;;;;;;;;;;;;25.23;40.07;101344.69;5050376;28;20118;-61
2021/08/04 09:42:01;;;;;;;;;;;;;;;25.35;40.48;101350.47;5051891;28;20437;-62
2021/08/04 09:44:28;;;;;;;;;;;;;;;25.24;40.36;101347.19;5052004;28;19921;-49
2021/08/04 09:47:08;;;;;;;;;;;;;;;25.36;41.26;101342.22;5053208;28;19924;-47
2021/08/04 09:49:35;;;;;;;;;;;;;;;25.72;40.76;101346.81;5053477;28;20039;-51
2021/08/04 09:52:06;;;;;;;;;;;;;;;25.93;41.15;101346.03;5051889;28;20269;-52
2021/08/04 09:54:36;;;;;;;;;;;;;;;25.99;39.81;101347.13;5049970;28;19939;-50
2021/08/04 09:57:03;;;;;;;;;;;;;;;26.13;41.01;101348.97;5051040;28;20330;-51
2021/08/04 09:59:30;;;;;;;;;;;;;;;26.20;39.73;101338.25;5051822;28;19998;-49
2021/08/04 10:01:59;;;;;;;;;;;;;;;26.38;39.64;101343.22;5051898;28;19924;-62
2021/08/04 10:04:26;;;;;;;;;;;;;;;26.40;39.52;101340.34;5053312;28;20330;-59
2021/08/04 10:07:02;;;;;;;;;;;;;;;26.38;39.02;101345.06;5052618;28;19920;-59
2021/08/04 10:09:29;;;;;;;;;;;;;;;26.51;40.24;101344.38;5052897;28;19928;-61
2021/08/04 10:11:56;;;;;;;;;;;;;;;26.75;39.54;101344.00;5051424;28;19921;-60
2021/08/04 10:14:23;;;;;;;;;;;;;;;26.79;39.79;101345.25;5046928;28;19958;-60
2021/08/04 10:16:51;;;;;;;;;;;;;;;26.95;39.99;101351.38;5051129;28;20288;-60
2021/08/04 10:19:18;;;;;;;;;;;;;;;26.82;37.96;101346.75;5051548;28;19921;-60
2021/08/04 10:21:49;;;;;;;;;;;;;;;26.88;38.78;101350.50;5051442;28;19974;-60
2021/08/04 10:24:15;;;;;;;;;;;;;;;26.78;37.28;101343.59;5052667;28;19933;-48
2021/08/04 10:26:42;;;;;;;;;;;;;;;26.53;37.92;101340.44;5052355;28;20078;-49
2021/08/04 10:29:09;;;;;;;;;;;;;;;26.56;38.19;101341.91;5051465;28;19920;-49
2021/08/04 10:31:37;;;;;;;;;;;;;;;26.64;37.99;101339.94;5052470;28;20038;-60
2021/08/04 10:34:04;;;;;;;;;;;;;;;26.59;39.54;101342.38;5051395;28;20018;-59
2021/08/04 10:36:32;;;;;;;;;;;;;;;26.63;40.37;101340.94;5052381;28;20386;-60
2021/08/04 10:39:00;;;;;;;;;;;;;;;26.93;39.72;101332.69;5052408;28;19928;-60
2021/08/04 10:41:27;;;;;;;;;;;;;;;27.33;40.43;101326.72;5051141;28;19956;-51
2021/08/04 10:43:57;;;;;;;;;;;;;;;27.37;37.83;101330.72;5051537;28;19921;-48
2021/08/04 10:46:30;;;;;;;;;;;;;;;27.33;39.36;101332.94;5048659;28;19920;-61
2021/08/04 10:49:06;;;;;;;;;;;;;;;27.81;39.03;101324.06;5051401;28;20379;-61
2021/08/04 10:51:37;;;;;;;;;;;;;;;27.53;37.55;101321.44;5051117;28;19921;-61
2021/08/04 10:54:04;;;;;;;;;;;;;;;27.54;39.27;101333.94;5051151;28;19943;-47
2021/08/04 10:56:39;;;;;;;;;;;;;;;27.85;37.60;101320.94;5051151;28;19925;-52
2021/08/04 10:59:12;;;;;;;;;;;;;;;27.72;36.79;101319.00;5052457;28;19950;-61
2021/08/04 11:01:38;;;;;;;;;;;;;;;27.27;37.17;101327.53;5052243;28;19920;-51
2021/08/04 11:04:06;;;;;;;;;;;;;;;26.83;38.88;101321.41;5052177;28;19973;-60
2021/08/04 11:06:33;;;;;;;;;;;;;;;26.61;38.78;101324.16;5052497;28;20334;-61
2021/08/04 11:09:12;;;;;;;;;;;;;;;27.09;37.99;101314.53;5051474;28;19985;-49
2021/08/04 11:11:54;;;;;;;;;;;;;;;27.09;37.49;101319.91;5049537;28;19982;-50
2021/08/04 11:14:38;;;;;;;;;;;;;;;27.12;39.11;101320.38;5051675;28;20478;-51
2021/08/04 11:17:05;;;;;;;;;;;;;;;27.35;36.40;101319.25;5052240;28;19920;-49
2021/08/04 11:19:34;;;;;;;;;;;;;;;26.96;36.57;101316.09;5051287;28;20023;-50
2021/08/04 11:22:14;;;;;;;;;;;;;;;26.95;38.40;101303.66;5049227;28;19921;-51
2021/08/04 11:24:51;;;;;;;;;;;;;;;27.13;37.39;101305.00;5050591;28;20379;-47
2021/08/04 11:27:17;;;;;;;;;;;;;;;27.59;35.75;101309.00;5052290;28;19921;-50
2021/08/04 11:29:45;;;;;;;;;;;;;;;27.56;35.91;101304.84;5050752;28;19928;-49
2021/08/04 11:32:18;;;;;;;;;;;;;;;27.67;35.43;101301.53;5051913;28;19959;-49
2021/08/04 11:34:45;;;;;;;;;;;;;;;28.15;35.38;101297.13;5050251;28;20375;-46
2021/08/04 11:37:12;;;;;;;;;;;;;;;28.05;34.46;101294.81;5048627;28;19970;-51
2021/08/04 11:40:01;;;;;;;;;;;;;;;27.74;33.99;101298.88;5053864;28;19925;-51
2021/08/04 11:42:29;;;;;;;;;;;;;;;28.01;34.78;101296.28;5055494;28;19920;-49
2021/08/04 11:45:05;;;;;;;;;;;;;;;27.78;36.06;101294.72;5055361;28;19963;-49
2021/08/04 11:47:31;;;;;;;;;;;;;;;27.89;35.12;101289.78;5055763;28;20394;-52
2021/08/04 11:50:03;;;;;;;;;;;;;;;27.51;36.19;101298.38;5055562;28;19921;-47
2021/08/04 11:52:34;;;;;;;;;;;;;;;27.52;35.36;101290.06;5054305;28;19976;-51
2021/08/04 11:55:05;;;;;;;;;;;;;;;27.67;35.30;101289.91;5055673;28;19925;-61
2021/08/04 11:57:32;;;;;;;;;;;;;;;27.85;35.24;101292.03;5055319;28;19921;-61
2021/08/04 12:00:19;;;;;;;;;;;;;;;27.75;34.97;101288.91;5055317;28;20434;-61
2021/08/04 12:02:46;;;;;;;;;;;;;;;28.09;36.07;101289.84;5054362;28;19933;-61
2021/08/04 12:05:15;;;;;;;;;;;;;;;27.64;36.12;101283.03;5051632;28;20419;-49
2021/08/04 12:07:42;;;;;;;;;;;;;;;27.54;36.25;101287.16;5051395;28;19920;-52
2021/08/04 12:10:12;;;;;;;;;;;;;;;27.50;35.80;101278.66;5055003;28;19927;-61
2021/08/04 12:12:39;;;;;;;;;;;;;;;27.76;35.92;101280.59;5055117;28;19921;-50
2021/08/04 12:15:24;;;;;;;;;;;;;;;27.82;35.83;101279.75;5051359;28;19967;-59
2021/08/04 12:17:58;;;;;;;;;;;;;;;28.05;36.07;101275.91;5051472;28;19927;-62
2021/08/04 12:20:25;;;;;;;;;;;;;;;28.39;35.24;101275.94;5054757;28;19928;-62
2021/08/04 12:22:59;;;;;;;;;;;;;;;28.41;36.14;101273.84;5055040;28;19943;-52
2021/08/04 12:25:26;;;;;;;;;;;;;;;28.54;34.37;101273.84;5054607;28;19974;-50
2021/08/04 12:27:53;;;;;;;;;;;;;;;28.97;32.91;101257.16;5053793;28;20383;-51
2021/08/04 12:30:20;;;;;;;;;;;;;;;29.40;34.15;101268.50;5054723;28;19943;-62
2021/08/04 12:32:56;;;;;;;;;;;;;;;28.29;33.02;101269.06;5054600;28;19932;-61
2021/08/04 12:35:25;;;;;;;;;;;;;;;28.65;32.99;101264.28;5054613;28;19927;-62
2021/08/04 12:37:52;;;;;;;;;;;;;;;28.65;33.80;101270.53;5053352;28;19928;-50
2021/08/04 12:40:19;;;;;;;;;;;;;;;28.33;32.50;101262.19;5054432;28;19927;-62
2021/08/04 12:42:46;;;;;;;;;;;;;;;27.88;33.51;101261.91;5054437;28;19951;-52